sensor_id;sensor_type;location;lat;lon;timestamp;temperature;humidity
4673;DHT22;61885;53.560;9.940;2023-07-13T00:00:09;17.00;90.20
4673;DHT22;61885;53.560;9.940;2023-07-13T00:02:42;16.90;90.60
4673;DHT22;61885;53.560;9.940;2023-07-13T00:05:12;16.90;90.60
4673;DHT22;61885;53.560;9.940;2023-07-13T00:07:41;17.00;90.80
4673;DHT22;61885;53.560;9.940;2023-07-13T00:10:12;16.90;90.80
4673;DHT22;61885;53.560;9.940;2023-07-13T00:12:42;16.80;90.80
4673;DHT22;61885;53.560;9.940;2023-07-13T00:15:17;16.90;91.00
4673;DHT22;61885;53.560;9.940;2023-07-13T00:17:49;16.80;91.00
4673;DHT22;61885;53.560;9.940;2023-07-13T00:20:19;16.70;90.90
4673;DHT22;61885;53.560;9.940;2023-07-13T00:22:51;16.70;91.20
4673;DHT22;61885;53.560;9.940;2023-07-13T00:25:22;16.70;91.10
4673;DHT22;61885;53.560;9.940;2023-07-13T00:27:56;16.70;91.20
4673;DHT22;61885;53.560;9.940;2023-07-13T00:30:31;16.80;90.80
4673;DHT22;61885;53.560;9.940;2023-07-13T00:33:03;16.70;90.80
4673;DHT22;61885;53.560;9.940;2023-07-13T00:35:34;16.80;90.80
4673;DHT22;61885;53.560;9.940;2023-07-13T00:38:08;16.90;90.60
4673;DHT22;61885;53.560;9.940;2023-07-13T00:40:37;16.80;91.00
4673;DHT22;61885;53.560;9.940;2023-07-13T00:43:12;16.80;91.30
4673;DHT22;61885;53.560;9.940;2023-07-13T00:46:14;16.80;91.30
4673;DHT22;61885;53.560;9.940;2023-07-13T00:48:46;16.80;91.60
4673;DHT22;61885;53.560;9.940;2023-07-13T00:51:21;16.80;91.80
4673;DHT22;61885;53.560;9.940;2023-07-13T00:53:57;16.80;91.70
4673;DHT22;61885;53.560;9.940;2023-07-13T00:56:28;16.80;91.60
4673;DHT22;61885;53.560;9.940;2023-07-13T00:59:00;16.80;91.60
4673;DHT22;61885;53.560;9.940;2023-07-13T01:01:32;16.80;91.60
4673;DHT22;61885;53.560;9.940;2023-07-13T01:04:03;16.80;91.60
4673;DHT22;61885;53.560;9.940;2023-07-13T01:06:37;16.80;91.70
4673;DHT22;61885;53.560;9.940;2023-07-13T01:09:08;16.80;91.50
4673;DHT22;61885;53.560;9.940;2023-07-13T01:11:40;16.80;92.00
4673;DHT22;61885;53.560;9.940;2023-07-13T01:14:11;16.70;92.00
4673;DHT22;61885;53.560;9.940;2023-07-13T01:16:46;16.80;92.10
4673;DHT22;61885;53.560;9.940;2023-07-13T01:19:25;16.70;92.20
4673;DHT22;61885;53.560;9.940;2023-07-13T01:22:05;16.70;92.10
4673;DHT22;61885;53.560;9.940;2023-07-13T01:24:39;16.70;92.30
4673;DHT22;61885;53.560;9.940;2023-07-13T01:27:10;16.70;92.30
4673;DHT22;61885;53.560;9.940;2023-07-13T01:29:43;16.70;92.20
4673;DHT22;61885;53.560;9.940;2023-07-13T01:32:16;16.60;92.40
4673;DHT22;61885;53.560;9.940;2023-07-13T01:34:51;16.60;92.20
4673;DHT22;61885;53.560;9.940;2023-07-13T01:37:25;16.60;92.30
4673;DHT22;61885;53.560;9.940;2023-07-13T01:43:14;16.60;92.30
4673;DHT22;61885;53.560;9.940;2023-07-13T01:45:45;16.60;92.10
4673;DHT22;61885;53.560;9.940;2023-07-13T01:48:15;16.50;92.20
4673;DHT22;61885;53.560;9.940;2023-07-13T01:50:47;16.60;92.40
4673;DHT22;61885;53.560;9.940;2023-07-13T01:53:20;16.50;92.40
4673;DHT22;61885;53.560;9.940;2023-07-13T01:55:55;16.60;92.30
4673;DHT22;61885;53.560;9.940;2023-07-13T01:58:24;16.50;92.30
4673;DHT22;61885;53.560;9.940;2023-07-13T02:00:54;16.50;92.40
4673;DHT22;61885;53.560;9.940;2023-07-13T02:03:23;16.50;92.30
4673;DHT22;61885;53.560;9.940;2023-07-13T02:05:55;16.40;92.30
4673;DHT22;61885;53.560;9.940;2023-07-13T02:08:27;16.30;92.20
4673;DHT22;61885;53.560;9.940;2023-07-13T02:10:56;16.40;92.40
4673;DHT22;61885;53.560;9.940;2023-07-13T02:13:27;16.50;92.40
4673;DHT22;61885;53.560;9.940;2023-07-13T02:15:59;16.40;92.30
4673;DHT22;61885;53.560;9.940;2023-07-13T02:18:29;16.40;92.40
4673;DHT22;61885;53.560;9.940;2023-07-13T02:20:59;16.40;92.40
4673;DHT22;61885;53.560;9.940;2023-07-13T02:23:36;16.40;92.10
4673;DHT22;61885;53.560;9.940;2023-07-13T02:26:05;16.30;92.20
4673;DHT22;61885;53.560;9.940;2023-07-13T02:28:37;16.30;92.00
4673;DHT22;61885;53.560;9.940;2023-07-13T02:31:10;16.30;91.80
4673;DHT22;61885;53.560;9.940;2023-07-13T02:33:40;16.30;91.90
4673;DHT22;61885;53.560;9.940;2023-07-13T02:36:11;16.30;91.60
4673;DHT22;61885;53.560;9.940;2023-07-13T02:38:45;16.20;91.80
4673;DHT22;61885;53.560;9.940;2023-07-13T02:41:16;16.20;92.00
4673;DHT22;61885;53.560;9.940;2023-07-13T02:43:46;16.30;91.90
4673;DHT22;61885;53.560;9.940;2023-07-13T02:46:15;16.30;92.00
4673;DHT22;61885;53.560;9.940;2023-07-13T02:48:46;16.20;91.90
4673;DHT22;61885;53.560;9.940;2023-07-13T02:51:15;16.20;91.80
4673;DHT22;61885;53.560;9.940;2023-07-13T02:53:47;16.20;91.80
4673;DHT22;61885;53.560;9.940;2023-07-13T02:56:25;16.20;91.60
4673;DHT22;61885;53.560;9.940;2023-07-13T02:58:54;16.10;91.70
4673;DHT22;61885;53.560;9.940;2023-07-13T03:01:25;16.10;91.40
4673;DHT22;61885;53.560;9.940;2023-07-13T03:03:55;16.10;91.50
4673;DHT22;61885;53.560;9.940;2023-07-13T03:06:24;16.20;91.50
4673;DHT22;61885;53.560;9.940;2023-07-13T03:08:59;16.10;91.20
4673;DHT22;61885;53.560;9.940;2023-07-13T03:11:30;16.10;91.20
4673;DHT22;61885;53.560;9.940;2023-07-13T03:13:59;16.00;91.00
4673;DHT22;61885;53.560;9.940;2023-07-13T03:16:29;16.00;91.10
4673;DHT22;61885;53.560;9.940;2023-07-13T03:18:58;16.00;91.10
4673;DHT22;61885;53.560;9.940;2023-07-13T03:21:28;16.10;90.90
4673;DHT22;61885;53.560;9.940;2023-07-13T03:24:00;16.00;90.80
4673;DHT22;61885;53.560;9.940;2023-07-13T03:26:30;16.00;90.40
4673;DHT22;61885;53.560;9.940;2023-07-13T03:28:59;16.00;90.70
4673;DHT22;61885;53.560;9.940;2023-07-13T03:31:33;16.00;90.60
4673;DHT22;61885;53.560;9.940;2023-07-13T03:34:04;16.10;90.60
4673;DHT22;61885;53.560;9.940;2023-07-13T03:36:35;16.10;90.40
4673;DHT22;61885;53.560;9.940;2023-07-13T03:39:08;16.00;90.30
4673;DHT22;61885;53.560;9.940;2023-07-13T03:41:38;16.10;90.30
4673;DHT22;61885;53.560;9.940;2023-07-13T03:44:12;16.10;90.10
4673;DHT22;61885;53.560;9.940;2023-07-13T03:46:41;16.10;89.70
4673;DHT22;61885;53.560;9.940;2023-07-13T03:49:11;16.10;89.80
4673;DHT22;61885;53.560;9.940;2023-07-13T03:51:41;16.20;89.40
4673;DHT22;61885;53.560;9.940;2023-07-13T03:54:13;16.10;88.90
4673;DHT22;61885;53.560;9.940;2023-07-13T03:56:42;16.20;88.70
4673;DHT22;61885;53.560;9.940;2023-07-13T03:59:12;16.10;87.90
4673;DHT22;61885;53.560;9.940;2023-07-13T04:01:44;16.10;88.00
4673;DHT22;61885;53.560;9.940;2023-07-13T04:04:13;16.20;87.10
4673;DHT22;61885;53.560;9.940;2023-07-13T04:06:44;16.30;87.00
4673;DHT22;61885;53.560;9.940;2023-07-13T04:09:16;16.10;86.50
4673;DHT22;61885;53.560;9.940;2023-07-13T04:11:45;16.20;86.60
4673;DHT22;61885;53.560;9.940;2023-07-13T04:14:15;16.30;86.80
4673;DHT22;61885;53.560;9.940;2023-07-13T04:16:45;16.20;86.80
4673;DHT22;61885;53.560;9.940;2023-07-13T04:19:14;16.20;87.00
4673;DHT22;61885;53.560;9.940;2023-07-13T04:21:44;16.20;86.70
4673;DHT22;61885;53.560;9.940;2023-07-13T04:24:16;16.30;87.00
4673;DHT22;61885;53.560;9.940;2023-07-13T04:26:48;16.50;86.60
4673;DHT22;61885;53.560;9.940;2023-07-13T04:29:18;16.40;86.40
4673;DHT22;61885;53.560;9.940;2023-07-13T04:31:48;16.40;86.40
4673;DHT22;61885;53.560;9.940;2023-07-13T04:34:17;16.50;86.60
4673;DHT22;61885;53.560;9.940;2023-07-13T04:36:47;16.60;87.20
4673;DHT22;61885;53.560;9.940;2023-07-13T04:39:20;16.80;86.70
4673;DHT22;61885;53.560;9.940;2023-07-13T04:41:49;16.70;86.60
4673;DHT22;61885;53.560;9.940;2023-07-13T04:44:19;16.70;86.30
4673;DHT22;61885;53.560;9.940;2023-07-13T04:46:49;16.70;86.70
4673;DHT22;61885;53.560;9.940;2023-07-13T04:49:20;16.70;86.10
4673;DHT22;61885;53.560;9.940;2023-07-13T04:51:49;16.70;86.50
4673;DHT22;61885;53.560;9.940;2023-07-13T04:54:24;16.70;85.80
4673;DHT22;61885;53.560;9.940;2023-07-13T04:56:54;16.60;86.20
4673;DHT22;61885;53.560;9.940;2023-07-13T04:59:23;16.70;86.00
4673;DHT22;61885;53.560;9.940;2023-07-13T05:01:53;16.70;86.00
4673;DHT22;61885;53.560;9.940;2023-07-13T05:04:23;16.60;85.90
4673;DHT22;61885;53.560;9.940;2023-07-13T05:06:53;16.60;86.20
4673;DHT22;61885;53.560;9.940;2023-07-13T05:09:25;16.60;86.00
4673;DHT22;61885;53.560;9.940;2023-07-13T05:11:57;16.60;86.40
4673;DHT22;61885;53.560;9.940;2023-07-13T05:14:26;16.80;86.40
4673;DHT22;61885;53.560;9.940;2023-07-13T05:16:56;16.80;86.20
4673;DHT22;61885;53.560;9.940;2023-07-13T05:19:26;16.90;85.90
4673;DHT22;61885;53.560;9.940;2023-07-13T05:21:56;17.00;85.60
4673;DHT22;61885;53.560;9.940;2023-07-13T05:24:28;17.00;86.00
4673;DHT22;61885;53.560;9.940;2023-07-13T05:26:58;17.10;85.60
4673;DHT22;61885;53.560;9.940;2023-07-13T05:29:28;17.10;85.80
4673;DHT22;61885;53.560;9.940;2023-07-13T05:31:57;17.00;86.00
4673;DHT22;61885;53.560;9.940;2023-07-13T05:34:27;17.00;85.90
4673;DHT22;61885;53.560;9.940;2023-07-13T05:36:57;17.00;86.20
4673;DHT22;61885;53.560;9.940;2023-07-13T05:39:29;17.00;86.00
4673;DHT22;61885;53.560;9.940;2023-07-13T05:41:58;17.10;86.00
4673;DHT22;61885;53.560;9.940;2023-07-13T05:44:28;17.00;86.20
4673;DHT22;61885;53.560;9.940;2023-07-13T05:46:57;16.80;86.50
4673;DHT22;61885;53.560;9.940;2023-07-13T05:49:27;16.70;87.40
4673;DHT22;61885;53.560;9.940;2023-07-13T05:51:59;16.70;87.40
4673;DHT22;61885;53.560;9.940;2023-07-13T05:54:31;16.80;87.30
4673;DHT22;61885;53.560;9.940;2023-07-13T05:57:00;16.80;87.50
4673;DHT22;61885;53.560;9.940;2023-07-13T05:59:30;16.90;87.30
4673;DHT22;61885;53.560;9.940;2023-07-13T06:01:59;16.80;87.50
4673;DHT22;61885;53.560;9.940;2023-07-13T06:04:31;16.80;87.50
4673;DHT22;61885;53.560;9.940;2023-07-13T06:07:01;16.90;87.30
4673;DHT22;61885;53.560;9.940;2023-07-13T06:09:33;16.90;87.70
4673;DHT22;61885;53.560;9.940;2023-07-13T06:12:05;17.00;87.40
4673;DHT22;61885;53.560;9.940;2023-07-13T06:14:35;16.90;87.20
4673;DHT22;61885;53.560;9.940;2023-07-13T06:17:11;16.90;87.40
4673;DHT22;61885;53.560;9.940;2023-07-13T06:19:42;17.00;87.40
4673;DHT22;61885;53.560;9.940;2023-07-13T06:22:11;17.10;87.10
4673;DHT22;61885;53.560;9.940;2023-07-13T06:24:43;17.10;86.70
4673;DHT22;61885;53.560;9.940;2023-07-13T06:27:13;17.10;86.80
4673;DHT22;61885;53.560;9.940;2023-07-13T06:29:42;17.20;86.70
4673;DHT22;61885;53.560;9.940;2023-07-13T06:32:12;17.20;86.40
4673;DHT22;61885;53.560;9.940;2023-07-13T06:34:42;17.10;86.40
4673;DHT22;61885;53.560;9.940;2023-07-13T06:37:11;17.30;86.40
4673;DHT22;61885;53.560;9.940;2023-07-13T06:39:44;17.10;86.70
4673;DHT22;61885;53.560;9.940;2023-07-13T06:42:15;17.30;86.50
4673;DHT22;61885;53.560;9.940;2023-07-13T06:44:44;17.10;86.60
4673;DHT22;61885;53.560;9.940;2023-07-13T06:47:14;17.00;87.10
4673;DHT22;61885;53.560;9.940;2023-07-13T06:49:43;17.30;87.00
4673;DHT22;61885;53.560;9.940;2023-07-13T06:52:13;17.60;86.20
4673;DHT22;61885;53.560;9.940;2023-07-13T06:54:45;17.90;85.30
4673;DHT22;61885;53.560;9.940;2023-07-13T06:57:15;18.00;84.60
4673;DHT22;61885;53.560;9.940;2023-07-13T06:59:45;17.70;84.80
4673;DHT22;61885;53.560;9.940;2023-07-13T07:02:15;17.30;85.90
4673;DHT22;61885;53.560;9.940;2023-07-13T07:04:44;17.40;86.40
4673;DHT22;61885;53.560;9.940;2023-07-13T07:07:14;17.60;85.90
4673;DHT22;61885;53.560;9.940;2023-07-13T07:09:47;17.70;85.40
4673;DHT22;61885;53.560;9.940;2023-07-13T07:12:16;17.90;85.60
4673;DHT22;61885;53.560;9.940;2023-07-13T07:14:46;18.00;84.90
4673;DHT22;61885;53.560;9.940;2023-07-13T07:17:15;18.00;84.90
4673;DHT22;61885;53.560;9.940;2023-07-13T07:19:48;18.30;83.50
4673;DHT22;61885;53.560;9.940;2023-07-13T07:22:18;18.10;83.90
4673;DHT22;61885;53.560;9.940;2023-07-13T07:24:50;18.10;84.30
4673;DHT22;61885;53.560;9.940;2023-07-13T07:27:20;18.10;83.90
4673;DHT22;61885;53.560;9.940;2023-07-13T07:29:50;18.20;83.60
4673;DHT22;61885;53.560;9.940;2023-07-13T07:32:20;18.50;83.30
4673;DHT22;61885;53.560;9.940;2023-07-13T07:34:50;18.60;83.10
4673;DHT22;61885;53.560;9.940;2023-07-13T07:37:20;18.70;82.60
4673;DHT22;61885;53.560;9.940;2023-07-13T07:39:52;18.80;82.30
4673;DHT22;61885;53.560;9.940;2023-07-13T07:42:21;19.00;81.70
4673;DHT22;61885;53.560;9.940;2023-07-13T07:44:54;19.00;81.10
4673;DHT22;61885;53.560;9.940;2023-07-13T07:47:23;19.00;81.20
4673;DHT22;61885;53.560;9.940;2023-07-13T07:49:53;18.90;81.40
4673;DHT22;61885;53.560;9.940;2023-07-13T07:52:26;18.70;82.10
4673;DHT22;61885;53.560;9.940;2023-07-13T07:54:58;19.10;81.60
4673;DHT22;61885;53.560;9.940;2023-07-13T07:57:28;19.20;80.90
4673;DHT22;61885;53.560;9.940;2023-07-13T07:59:57;19.40;80.40
4673;DHT22;61885;53.560;9.940;2023-07-13T08:02:29;19.40;80.20
4673;DHT22;61885;53.560;9.940;2023-07-13T08:04:58;19.60;79.80
4673;DHT22;61885;53.560;9.940;2023-07-13T08:07:28;19.60;79.80
4673;DHT22;61885;53.560;9.940;2023-07-13T08:10:09;19.90;79.50
4673;DHT22;61885;53.560;9.940;2023-07-13T08:12:39;19.90;78.40
4673;DHT22;61885;53.560;9.940;2023-07-13T08:15:15;19.70;78.50
4673;DHT22;61885;53.560;9.940;2023-07-13T08:17:47;19.50;79.10
4673;DHT22;61885;53.560;9.940;2023-07-13T08:20:17;19.50;79.20
4673;DHT22;61885;53.560;9.940;2023-07-13T08:22:47;19.70;79.10
4673;DHT22;61885;53.560;9.940;2023-07-13T08:25:20;19.80;78.60
4673;DHT22;61885;53.560;9.940;2023-07-13T08:27:51;20.00;78.30
4673;DHT22;61885;53.560;9.940;2023-07-13T08:30:23;20.00;78.00
4673;DHT22;61885;53.560;9.940;2023-07-13T08:32:56;19.80;78.10
4673;DHT22;61885;53.560;9.940;2023-07-13T08:35:26;19.70;78.30
4673;DHT22;61885;53.560;9.940;2023-07-13T08:37:56;19.90;78.40
4673;DHT22;61885;53.560;9.940;2023-07-13T08:40:29;19.90;78.30
4673;DHT22;61885;53.560;9.940;2023-07-13T08:42:59;20.00;77.00
4673;DHT22;61885;53.560;9.940;2023-07-13T08:45:38;20.00;76.60
4673;DHT22;61885;53.560;9.940;2023-07-13T08:48:14;20.20;76.50
4673;DHT22;61885;53.560;9.940;2023-07-13T08:50:52;20.30;76.70
4673;DHT22;61885;53.560;9.940;2023-07-13T08:53:24;20.50;76.70
4673;DHT22;61885;53.560;9.940;2023-07-13T08:55:58;20.40;75.80
4673;DHT22;61885;53.560;9.940;2023-07-13T08:58:29;20.10;75.50
4673;DHT22;61885;53.560;9.940;2023-07-13T09:01:08;20.10;75.60
4673;DHT22;61885;53.560;9.940;2023-07-13T09:03:45;20.10;75.10
4673;DHT22;61885;53.560;9.940;2023-07-13T09:06:16;20.10;75.50
4673;DHT22;61885;53.560;9.940;2023-07-13T09:08:54;20.30;73.70
4673;DHT22;61885;53.560;9.940;2023-07-13T09:11:38;20.30;73.70
4673;DHT22;61885;53.560;9.940;2023-07-13T09:14:35;20.10;74.80
4673;DHT22;61885;53.560;9.940;2023-07-13T09:17:12;20.30;74.90
4673;DHT22;61885;53.560;9.940;2023-07-13T09:19:43;20.40;74.40
4673;DHT22;61885;53.560;9.940;2023-07-13T09:22:20;20.30;73.60
4673;DHT22;61885;53.560;9.940;2023-07-13T09:24:57;20.50;74.40
4673;DHT22;61885;53.560;9.940;2023-07-13T09:27:36;20.90;71.30
4673;DHT22;61885;53.560;9.940;2023-07-13T09:30:23;20.60;71.70
4673;DHT22;61885;53.560;9.940;2023-07-13T09:32:54;20.70;72.20
4673;DHT22;61885;53.560;9.940;2023-07-13T09:35:27;20.70;71.20
4673;DHT22;61885;53.560;9.940;2023-07-13T09:38:01;20.50;71.70
4673;DHT22;61885;53.560;9.940;2023-07-13T09:40:42;20.60;72.50
4673;DHT22;61885;53.560;9.940;2023-07-13T09:43:17;20.70;72.40
4673;DHT22;61885;53.560;9.940;2023-07-13T09:45:48;20.90;70.60
4673;DHT22;61885;53.560;9.940;2023-07-13T09:48:20;21.00;70.30
4673;DHT22;61885;53.560;9.940;2023-07-13T09:50:55;21.00;69.00
4673;DHT22;61885;53.560;9.940;2023-07-13T09:53:31;20.90;69.20
4673;DHT22;61885;53.560;9.940;2023-07-13T09:56:00;20.90;69.00
4673;DHT22;61885;53.560;9.940;2023-07-13T09:58:35;21.00;69.70
4673;DHT22;61885;53.560;9.940;2023-07-13T10:01:05;21.20;69.00
4673;DHT22;61885;53.560;9.940;2023-07-13T10:03:35;21.20;68.50
4673;DHT22;61885;53.560;9.940;2023-07-13T10:06:12;21.10;69.30
4673;DHT22;61885;53.560;9.940;2023-07-13T10:08:44;21.30;69.10
4673;DHT22;61885;53.560;9.940;2023-07-13T10:11:18;21.10;67.70
4673;DHT22;61885;53.560;9.940;2023-07-13T10:13:56;21.10;68.50
4673;DHT22;61885;53.560;9.940;2023-07-13T10:16:29;21.00;68.90
4673;DHT22;61885;53.560;9.940;2023-07-13T10:19:02;21.40;67.10
4673;DHT22;61885;53.560;9.940;2023-07-13T10:21:35;21.50;65.50
4673;DHT22;61885;53.560;9.940;2023-07-13T10:24:17;21.50;65.10
4673;DHT22;61885;53.560;9.940;2023-07-13T10:26:55;21.50;65.80
4673;DHT22;61885;53.560;9.940;2023-07-13T10:29:29;21.40;65.80
4673;DHT22;61885;53.560;9.940;2023-07-13T10:32:08;21.60;64.90
4673;DHT22;61885;53.560;9.940;2023-07-13T10:34:39;21.70;65.10
4673;DHT22;61885;53.560;9.940;2023-07-13T10:37:16;21.80;64.10
4673;DHT22;61885;53.560;9.940;2023-07-13T10:39:51;21.70;63.40
4673;DHT22;61885;53.560;9.940;2023-07-13T10:42:28;21.70;63.60
4673;DHT22;61885;53.560;9.940;2023-07-13T10:45:01;21.80;63.80
4673;DHT22;61885;53.560;9.940;2023-07-13T10:47:31;22.00;62.30
4673;DHT22;61885;53.560;9.940;2023-07-13T10:50:00;21.90;61.90
4673;DHT22;61885;53.560;9.940;2023-07-13T10:52:45;21.70;63.40
4673;DHT22;61885;53.560;9.940;2023-07-13T10:55:32;21.60;62.40
4673;DHT22;61885;53.560;9.940;2023-07-13T10:58:03;21.50;60.90
4673;DHT22;61885;53.560;9.940;2023-07-13T11:00:48;21.70;61.70
4673;DHT22;61885;53.560;9.940;2023-07-13T11:03:21;22.10;60.80
4673;DHT22;61885;53.560;9.940;2023-07-13T11:06:07;21.90;62.10
4673;DHT22;61885;53.560;9.940;2023-07-13T11:08:52;22.00;62.60
4673;DHT22;61885;53.560;9.940;2023-07-13T11:11:43;22.40;60.80
4673;DHT22;61885;53.560;9.940;2023-07-13T11:14:41;22.60;59.90
4673;DHT22;61885;53.560;9.940;2023-07-13T11:17:36;22.90;60.40
4673;DHT22;61885;53.560;9.940;2023-07-13T11:20:34;23.30;57.40
4673;DHT22;61885;53.560;9.940;2023-07-13T11:23:19;23.10;57.90
4673;DHT22;61885;53.560;9.940;2023-07-13T11:25:49;23.30;56.40
4673;DHT22;61885;53.560;9.940;2023-07-13T11:28:25;23.10;56.40
4673;DHT22;61885;53.560;9.940;2023-07-13T11:31:14;23.00;57.00
4673;DHT22;61885;53.560;9.940;2023-07-13T11:33:53;22.70;57.00
4673;DHT22;61885;53.560;9.940;2023-07-13T11:36:36;22.70;57.50
4673;DHT22;61885;53.560;9.940;2023-07-13T11:39:16;22.90;56.40
4673;DHT22;61885;53.560;9.940;2023-07-13T11:41:50;22.80;56.40
4673;DHT22;61885;53.560;9.940;2023-07-13T11:44:23;22.70;57.30
4673;DHT22;61885;53.560;9.940;2023-07-13T11:46:55;22.60;58.40
4673;DHT22;61885;53.560;9.940;2023-07-13T11:49:31;22.80;57.80
4673;DHT22;61885;53.560;9.940;2023-07-13T11:52:11;22.40;59.40
4673;DHT22;61885;53.560;9.940;2023-07-13T11:54:47;22.10;59.90
4673;DHT22;61885;53.560;9.940;2023-07-13T11:57:24;21.90;60.60
4673;DHT22;61885;53.560;9.940;2023-07-13T11:59:55;22.10;60.90
4673;DHT22;61885;53.560;9.940;2023-07-13T12:02:28;22.40;60.10
4673;DHT22;61885;53.560;9.940;2023-07-13T12:05:04;22.80;59.60
4673;DHT22;61885;53.560;9.940;2023-07-13T12:07:35;22.80;60.20
4673;DHT22;61885;53.560;9.940;2023-07-13T12:10:18;22.50;60.50
4673;DHT22;61885;53.560;9.940;2023-07-13T12:12:51;22.30;61.10
4673;DHT22;61885;53.560;9.940;2023-07-13T12:15:22;21.10;69.10
4673;DHT22;61885;53.560;9.940;2023-07-13T12:17:56;19.80;77.70
4673;DHT22;61885;53.560;9.940;2023-07-13T12:20:35;18.60;84.40
4673;DHT22;61885;53.560;9.940;2023-07-13T12:23:10;17.50;86.90
4673;DHT22;61885;53.560;9.940;2023-07-13T12:25:44;16.90;89.20
4673;DHT22;61885;53.560;9.940;2023-07-13T12:28:28;16.50;90.70
4673;DHT22;61885;53.560;9.940;2023-07-13T12:31:00;16.50;92.60
4673;DHT22;61885;53.560;9.940;2023-07-13T12:33:35;16.60;93.10
4673;DHT22;61885;53.560;9.940;2023-07-13T12:36:11;16.70;92.80
4673;DHT22;61885;53.560;9.940;2023-07-13T12:38:45;17.00;93.30
4673;DHT22;61885;53.560;9.940;2023-07-13T12:41:15;17.40;92.30
4673;DHT22;61885;53.560;9.940;2023-07-13T12:43:45;17.70;92.60
4673;DHT22;61885;53.560;9.940;2023-07-13T12:46:18;18.30;90.10
4673;DHT22;61885;53.560;9.940;2023-07-13T12:48:50;18.50;85.30
4673;DHT22;61885;53.560;9.940;2023-07-13T12:51:26;18.60;86.30
4673;DHT22;61885;53.560;9.940;2023-07-13T12:54:07;18.60;86.10
4673;DHT22;61885;53.560;9.940;2023-07-13T12:56:41;18.40;84.40
4673;DHT22;61885;53.560;9.940;2023-07-13T12:59:17;18.40;86.90
4673;DHT22;61885;53.560;9.940;2023-07-13T13:01:49;18.30;86.80
4673;DHT22;61885;53.560;9.940;2023-07-13T13:04:23;18.10;86.90
4673;DHT22;61885;53.560;9.940;2023-07-13T13:07:08;18.00;85.80
4673;DHT22;61885;53.560;9.940;2023-07-13T13:09:39;18.10;85.80
4673;DHT22;61885;53.560;9.940;2023-07-13T13:12:10;18.10;86.70
4673;DHT22;61885;53.560;9.940;2023-07-13T13:14:40;17.90;83.70
4673;DHT22;61885;53.560;9.940;2023-07-13T13:17:18;18.10;85.00
4673;DHT22;61885;53.560;9.940;2023-07-13T13:20:00;18.60;85.30
4673;DHT22;61885;53.560;9.940;2023-07-13T13:22:32;18.80;82.50
4673;DHT22;61885;53.560;9.940;2023-07-13T13:25:09;19.30;82.10
4673;DHT22;61885;53.560;9.940;2023-07-13T13:27:41;19.50;80.20
4673;DHT22;61885;53.560;9.940;2023-07-13T13:30:16;19.60;82.90
4673;DHT22;61885;53.560;9.940;2023-07-13T13:32:48;19.60;79.50
4673;DHT22;61885;53.560;9.940;2023-07-13T13:35:19;19.40;81.00
4673;DHT22;61885;53.560;9.940;2023-07-13T13:37:51;19.30;79.60
4673;DHT22;61885;53.560;9.940;2023-07-13T13:40:22;19.40;80.50
4673;DHT22;61885;53.560;9.940;2023-07-13T13:42:53;19.60;79.10
4673;DHT22;61885;53.560;9.940;2023-07-13T13:45:24;19.60;78.80
4673;DHT22;61885;53.560;9.940;2023-07-13T13:47:56;19.90;78.80
4673;DHT22;61885;53.560;9.940;2023-07-13T13:50:27;20.00;76.10
4673;DHT22;61885;53.560;9.940;2023-07-13T13:53:00;19.80;77.40
4673;DHT22;61885;53.560;9.940;2023-07-13T13:55:34;19.90;78.00
4673;DHT22;61885;53.560;9.940;2023-07-13T13:58:05;19.60;75.60
4673;DHT22;61885;53.560;9.940;2023-07-13T14:00:34;19.60;77.50
4673;DHT22;61885;53.560;9.940;2023-07-13T14:03:05;19.60;76.00
4673;DHT22;61885;53.560;9.940;2023-07-13T14:05:38;19.50;78.10
4673;DHT22;61885;53.560;9.940;2023-07-13T14:08:15;19.80;75.80
4673;DHT22;61885;53.560;9.940;2023-07-13T14:10:49;20.20;75.80
4673;DHT22;61885;53.560;9.940;2023-07-13T14:13:24;21.00;72.70
4673;DHT22;61885;53.560;9.940;2023-07-13T14:15:57;20.90;73.50
4673;DHT22;61885;53.560;9.940;2023-07-13T14:18:32;20.90;72.10
4673;DHT22;61885;53.560;9.940;2023-07-13T14:21:02;20.50;73.30
4673;DHT22;61885;53.560;9.940;2023-07-13T14:23:34;20.10;73.70
4673;DHT22;61885;53.560;9.940;2023-07-13T14:26:09;20.50;75.40
4673;DHT22;61885;53.560;9.940;2023-07-13T14:28:42;20.70;75.40
4673;DHT22;61885;53.560;9.940;2023-07-13T14:31:13;20.80;74.10
4673;DHT22;61885;53.560;9.940;2023-07-13T14:33:44;21.00;72.10
4673;DHT22;61885;53.560;9.940;2023-07-13T14:36:24;21.10;70.70
4673;DHT22;61885;53.560;9.940;2023-07-13T14:39:00;21.20;70.10
4673;DHT22;61885;53.560;9.940;2023-07-13T14:41:31;21.20;73.10
4673;DHT22;61885;53.560;9.940;2023-07-13T14:44:01;21.10;71.20
4673;DHT22;61885;53.560;9.940;2023-07-13T14:46:44;20.80;74.00
4673;DHT22;61885;53.560;9.940;2023-07-13T14:49:22;20.60;74.00
4673;DHT22;61885;53.560;9.940;2023-07-13T14:51:54;20.30;76.90
4673;DHT22;61885;53.560;9.940;2023-07-13T14:54:28;20.10;78.90
4673;DHT22;61885;53.560;9.940;2023-07-13T14:57:01;20.10;79.40
4673;DHT22;61885;53.560;9.940;2023-07-13T14:59:33;20.20;78.10
4673;DHT22;61885;53.560;9.940;2023-07-13T15:02:15;20.20;76.70
4673;DHT22;61885;53.560;9.940;2023-07-13T15:04:45;20.40;77.50
4673;DHT22;61885;53.560;9.940;2023-07-13T15:07:16;20.40;77.30
4673;DHT22;61885;53.560;9.940;2023-07-13T15:09:51;20.80;76.60
4673;DHT22;61885;53.560;9.940;2023-07-13T15:12:25;21.80;73.70
4673;DHT22;61885;53.560;9.940;2023-07-13T15:14:54;22.50;69.20
4673;DHT22;61885;53.560;9.940;2023-07-13T15:17:30;21.70;70.70
4673;DHT22;61885;53.560;9.940;2023-07-13T15:20:11;21.60;71.60
4673;DHT22;61885;53.560;9.940;2023-07-13T15:22:48;21.30;71.10
4673;DHT22;61885;53.560;9.940;2023-07-13T15:25:28;20.90;70.80
4673;DHT22;61885;53.560;9.940;2023-07-13T15:28:00;21.00;70.10
4673;DHT22;61885;53.560;9.940;2023-07-13T15:30:34;20.60;71.30
4673;DHT22;61885;53.560;9.940;2023-07-13T15:33:14;20.60;72.60
4673;DHT22;61885;53.560;9.940;2023-07-13T15:35:44;20.80;71.20
4673;DHT22;61885;53.560;9.940;2023-07-13T15:38:17;20.70;70.40
4673;DHT22;61885;53.560;9.940;2023-07-13T15:40:53;21.10;69.20
4673;DHT22;61885;53.560;9.940;2023-07-13T15:43:23;21.90;68.50
4673;DHT22;61885;53.560;9.940;2023-07-13T15:45:56;22.40;66.50
4673;DHT22;61885;53.560;9.940;2023-07-13T15:48:26;22.30;65.20
4673;DHT22;61885;53.560;9.940;2023-07-13T15:51:01;21.90;66.70
4673;DHT22;61885;53.560;9.940;2023-07-13T15:53:35;21.70;67.10
4673;DHT22;61885;53.560;9.940;2023-07-13T15:56:25;21.80;65.70
4673;DHT22;61885;53.560;9.940;2023-07-13T15:59:02;22.50;65.80
4673;DHT22;61885;53.560;9.940;2023-07-13T16:01:34;23.60;60.70
4673;DHT22;61885;53.560;9.940;2023-07-13T16:04:05;24.00;60.90
4673;DHT22;61885;53.560;9.940;2023-07-13T16:06:36;23.80;58.90
4673;DHT22;61885;53.560;9.940;2023-07-13T16:09:12;22.60;61.50
4673;DHT22;61885;53.560;9.940;2023-07-13T16:11:49;21.80;65.00
4673;DHT22;61885;53.560;9.940;2023-07-13T16:14:21;21.60;64.70
4673;DHT22;61885;53.560;9.940;2023-07-13T16:16:51;21.00;66.00
4673;DHT22;61885;53.560;9.940;2023-07-13T16:19:21;20.60;67.80
4673;DHT22;61885;53.560;9.940;2023-07-13T16:21:55;20.60;68.30
4673;DHT22;61885;53.560;9.940;2023-07-13T16:24:26;20.70;68.90